Thorne, North Dakota
Current Conditions -  °F | °C
As of 11:35 PM on Monday 26 Jan 2015 (Local Time) from KRUG Reporting Station
Clear Clear  
Wind Chill: 10°   Ceiling: Unl
Heat Index: 19°   Visibility: 10mi
Dew Point: 19°   Wind: 7mph
Humidity: 100%   Direction: 130°SE
Pressure: 29.94"   Gusts: NA
Location:  48.632°N, 99.9505°W
Report Text: KRUG 270535Z AUTO 13006KT 10SM CLR M07/M07 A2994 RMK AO2
Loading
Personal Weather Stations






























Interactive Weather Map New forecast layout! Learn more

10-Day Weather Forecast

Advertisements
Track Severe Weather on mobile